Glenwood, MN (56334)

1:19 AM CDT on August 29, 2014 (GMT -0500)
KMGK (Magic 107.1) FM | Change Station
CLOSE
Current Station
Personal Weather Station
Location: Glenwood, MN
Elevation: 1168 ft
Nearby Weather Stations

Elev 1168 ft 45.65 °N, 95.39 °W | Updated 2 seconds ago

Overcast
Overcast
64.3 °F
Feels Like 64.3 °F
N
2.0
Wind Variable Wind from South
Gusts 7.0 mph

Today
High -- | Low -- °F
--% Chance of Precip.
Yesterday
High -- | Low -- °F
Precip. -- in
6:39 AM 8:04 PM
Waxing Crescent, 12% visible
Pressure 29.86 in
Visibility 7.0 miles
Clouds Overcast 400 ft
Dew Point 64 °F
Humidity 100%
Rainfall 0.00 in
Snow Depth Not available.
UV 0 out of 12
Pollen 7.00 out of 12
Air Quality Not available.
Flu Activity Not available.
METAR KGHW 290613Z AUTO 13006KT 7SM OVC004 18/17 A2986 RMK AO2 LTG DSNT SE

More Conditions Fewer Conditions

Pressure 29.86 in
Visibility 7.0 miles
Clouds Overcast 400 ft
Dew Point 64 °F
Humidity 100%
Rainfall 0.00 in
Snow Depth Not available.
UV 0 out of 12
Pollen 7.00 out of 12
Air Quality Not available.
Flu Activity Not available.
METAR KGHW 290613Z AUTO 13006KT 7SM OVC004 18/17 A2986 RMK AO2 LTG DSNT SE

More Conditions Fewer Conditions

10-Day Weather Forecast

Almanac

Astronomy

Aug. 29, 2014 Rise Set
Actual Time 6:39 AM CDT 8:04 PM CDT
Civil Twilight 6:08 AM CDT 8:35 PM CDT
Nautical Twilight 5:30 AM CDT 9:12 PM CDT
Astronomical Twilight 4:50 AM CDT 9:52 PM CDT
Moon 10:43 AM CDT 9:48 PM CDT
Length of Visible Light 14h 27m
Length of Day
13h 25m
Tomorrow will be 3m 4s shorter.
Waxing Crescent, 12% of the Moon is Illuminated
Today
Waxing Crescent
Sep 2
First Quarter
Sep 8
Full
Sep 15
Last Quarter
Sep 24
New

Today's Extremes

State Highs State Lows

Community

WunderPhotos

Upload Photos

1,748,197 photos uploaded!

Nearby

Snow Depth

Station Depth Elevation
No new snow has been reported.

Earthquake Activity

City Distance Mag. Time & Date
No recent earthquake activity has been reported nearby.
Minimum magnitude displayed is 2.5.

Coastal Water Temperatures

Place Temperature
No Stations Reporting

Nearby Weather Stations